Terminal Aerodrome Forecast
Issued by NWS Shreveport, LA

Home | Current Version | Previous Version | Text Only | Print | Product List | Glossary On
Versions: 1 2 3 4 5 6 7 8 9 10 11 12 13 14 15 16 17 18 19 20
392
FTUS44 KSHV 281952 AAA
TAFELD
TAF AMD
KELD 281952Z 2820/2918 VRB05KT P6SM VCTS SCT040CB BKN070
      TEMPO 2820/2822 2SM TSRA SCT025 BKN035CB
     FM290100 VRB03KT P6SM FEW050 BKN150
     FM291700 06007KT P6SM FEW040=

USA.gov is the U.S. government's official web portal to all federal, state and local government web resources and services.